createdAt,value
2019-01-24T00:00:42.502Z,24.67
2019-01-24T00:03:13.913Z,23.77
2019-01-24T00:05:43.882Z,22.57
2019-01-24T00:08:13.578Z,23.57
2019-01-24T00:10:43.306Z,22.50
2019-01-24T00:13:13.149Z,23.70
2019-01-24T00:15:42.979Z,23.17
2019-01-24T00:18:12.933Z,22.67
2019-01-24T00:20:43.027Z,24.93
2019-01-24T00:23:12.921Z,27.07
2019-01-24T00:25:42.557Z,25.40
2019-01-24T00:28:12.230Z,24.63
2019-01-24T00:30:42.043Z,22.27
2019-01-24T00:33:12.054Z,24.30
2019-01-24T00:35:41.961Z,23.53
2019-01-24T00:38:11.953Z,22.90
2019-01-24T00:40:41.933Z,23.50
2019-01-24T00:43:11.902Z,24.17
2019-01-24T00:45:41.846Z,22.17
2019-01-24T00:48:11.524Z,24.07
2019-01-24T00:50:41.224Z,23.70
2019-01-24T00:53:11.002Z,22.73
2019-01-24T00:55:40.890Z,24.07
2019-01-24T00:58:10.950Z,23.03
2019-01-24T01:00:40.907Z,21.73
2019-01-24T01:03:10.569Z,24.30
2019-01-24T01:05:40.353Z,22.77
2019-01-24T01:08:10.119Z,23.10
2019-01-24T01:10:40.065Z,23.97
2019-01-24T01:13:09.942Z,23.03
2019-01-24T01:15:39.866Z,22.20
2019-01-24T01:18:09.534Z,21.70
2019-01-24T01:20:39.240Z,23.03
2019-01-24T01:23:09.012Z,22.97
2019-01-24T01:25:38.942Z,22.23
2019-01-24T01:28:08.567Z,23.73
2019-01-24T01:30:38.252Z,23.43
2019-01-24T01:33:08.090Z,23.60
2019-01-24T01:35:37.988Z,23.30
2019-01-24T01:38:08.003Z,23.37
2019-01-24T01:40:38.022Z,24.13
2019-01-24T01:43:07.993Z,23.77
2019-01-24T01:45:37.946Z,22.83
2019-01-24T01:48:07.645Z,22.70
2019-01-24T01:50:37.346Z,21.83
2019-01-24T01:53:07.154Z,22.63
2019-01-24T01:55:37.146Z,22.53
2019-01-24T01:58:07.058Z,22.60
2019-01-24T02:00:37.077Z,22.32
2019-01-24T02:03:07.065Z,21.80
2019-01-24T02:05:37.115Z,22.22
2019-01-24T02:08:07.095Z,25.87
2019-01-24T02:10:37.307Z,22.87
2019-01-24T02:13:07.303Z,23.33
2019-01-24T02:15:37.284Z,22.47
2019-01-24T02:18:07.173Z,21.80
2019-01-24T02:20:37.157Z,24.00
2019-01-24T02:23:07.173Z,23.57
2019-01-24T02:25:37.149Z,22.45
2019-01-24T02:28:07.138Z,21.87
2019-01-24T02:30:37.103Z,22.00
2019-01-24T02:33:07.169Z,20.93
2019-01-24T02:35:37.131Z,22.42
2019-01-24T02:38:06.833Z,20.50
2019-01-24T02:40:37.294Z,19.82
2019-01-24T02:43:07.228Z,21.13
2019-01-24T02:45:37.301Z,21.33
2019-01-24T02:48:07.242Z,22.93
2019-01-24T02:50:37.262Z,21.70
2019-01-24T02:53:07.149Z,20.73
2019-01-24T02:55:37.534Z,20.12
2019-01-24T02:58:07.375Z,19.07
2019-01-24T03:00:37.306Z,19.07
2019-01-24T03:03:07.242Z,20.07
2019-01-24T03:05:37.212Z,21.48
2019-01-24T03:08:07.214Z,21.97
2019-01-24T03:10:37.282Z,23.00
2019-01-24T03:13:07.202Z,22.77
2019-01-24T03:15:37.153Z,23.15
2019-01-24T03:18:07.765Z,22.20
2019-01-24T03:20:37.440Z,22.83
2019-01-24T03:23:07.374Z,25.70
2019-01-24T03:25:37.419Z,23.50
2019-01-24T03:28:07.201Z,24.47
2019-01-24T03:30:37.170Z,23.42
2019-01-24T03:33:07.232Z,22.93
2019-01-24T03:35:37.287Z,22.52
2019-01-24T03:38:07.366Z,23.10
2019-01-24T03:40:37.325Z,22.82
2019-01-24T03:43:07.278Z,24.30
2019-01-24T03:45:37.234Z,22.13
2019-01-24T03:48:07.227Z,22.90
2019-01-24T03:50:37.188Z,22.50
2019-01-24T03:53:07.256Z,23.20
2019-01-24T03:55:36.939Z,23.47
2019-01-24T03:58:06.751Z,23.77
2019-01-24T04:00:36.521Z,22.83
2019-01-24T04:03:06.328Z,24.10
2019-01-24T04:05:36.419Z,23.15
2019-01-24T04:08:06.246Z,24.07
2019-01-24T04:10:36.348Z,25.20
2019-01-24T04:13:06.278Z,25.00
2019-01-24T04:15:36.302Z,24.43
2019-01-24T04:18:06.307Z,24.73
2019-01-24T04:20:36.395Z,25.30
2019-01-24T04:23:06.334Z,25.13
2019-01-24T04:25:36.942Z,23.92
2019-01-24T04:28:06.641Z,25.93
2019-01-24T04:30:36.403Z,23.73
2019-01-24T04:33:06.300Z,21.90
2019-01-24T04:35:36.512Z,21.05
2019-01-24T04:38:06.310Z,19.10
2019-01-24T04:40:36.565Z,20.48
2019-01-24T04:43:06.358Z,21.57
2019-01-24T04:45:36.583Z,21.65
2019-01-24T04:48:06.355Z,19.57
2019-01-24T04:50:36.616Z,20.40
2019-01-24T04:53:06.393Z,18.70
2019-01-24T04:55:36.384Z,22.60
2019-01-24T04:58:06.339Z,20.37
2019-01-24T05:00:36.582Z,19.75
2019-01-24T05:03:06.351Z,20.53
2019-01-24T05:05:36.619Z,21.23
2019-01-24T05:08:06.391Z,19.97
2019-01-24T05:10:36.436Z,20.40
2019-01-24T05:13:06.378Z,20.50
2019-01-24T05:15:36.370Z,20.70
2019-01-24T05:18:06.363Z,21.50
2019-01-24T05:20:36.456Z,20.70
2019-01-24T05:23:06.393Z,21.63
2019-01-24T05:25:36.447Z,19.87
2019-01-24T05:28:06.373Z,20.47
2019-01-24T05:30:36.357Z,20.25
2019-01-24T05:33:06.029Z,19.67
2019-01-24T05:35:35.730Z,21.20
2019-01-24T05:38:05.411Z,20.77
2019-01-24T05:40:35.561Z,21.60
2019-01-24T05:43:05.415Z,21.37
2019-01-24T05:45:35.498Z,21.42
2019-01-24T05:48:05.447Z,20.07
2019-01-24T05:50:35.488Z,20.83
2019-01-24T05:53:05.509Z,21.10
2019-01-24T05:55:35.637Z,19.45
2019-01-24T05:58:05.409Z,20.07
2019-01-24T06:00:39.891Z,20.32
2019-01-24T06:03:09.561Z,19.83
2019-01-24T06:05:41.926Z,21.20
2019-01-24T06:08:11.086Z,19.47
2019-01-24T06:10:40.853Z,21.67
2019-01-24T06:13:10.525Z,21.97
2019-01-24T06:15:40.461Z,22.23
2019-01-24T06:18:10.432Z,21.00
2019-01-24T06:20:40.393Z,20.77
2019-01-24T06:23:11.158Z,22.20
2019-01-24T06:25:41.476Z,22.20
2019-01-24T06:28:11.141Z,22.40
2019-01-24T06:30:40.851Z,20.37
2019-01-24T06:33:10.631Z,20.70
2019-01-24T06:35:40.495Z,23.10
2019-01-24T06:38:10.425Z,21.00
2019-01-24T06:40:40.134Z,21.93
2019-01-24T06:43:09.805Z,21.70
2019-01-24T06:45:39.748Z,23.37
2019-01-24T06:48:09.521Z,23.03
2019-01-24T06:50:39.501Z,23.97
2019-01-24T06:53:09.173Z,22.77
2019-01-24T06:55:38.881Z,23.07
2019-01-24T06:58:08.582Z,23.77
2019-01-24T07:00:38.542Z,22.60
2019-01-24T07:03:08.453Z,23.07
2019-01-24T07:05:38.161Z,24.63
2019-01-24T07:08:07.838Z,22.60
2019-01-24T07:10:37.737Z,21.67
2019-01-24T07:13:07.574Z,22.57
2019-01-24T07:15:37.834Z,21.40
2019-01-24T07:18:07.608Z,23.43
2019-01-24T07:20:37.305Z,22.43
2019-01-24T07:23:06.975Z,20.60
2019-01-24T07:25:36.718Z,21.60
2019-01-24T07:28:06.566Z,22.10
2019-01-24T07:30:36.274Z,22.00
2019-01-24T07:33:05.942Z,21.70
2019-01-24T07:35:35.775Z,21.43
2019-01-24T07:38:06.357Z,23.20
2019-01-24T07:40:36.192Z,22.97
2019-01-24T07:43:05.864Z,22.33
2019-01-24T07:45:38.124Z,25.43
2019-01-24T07:48:07.802Z,23.83
2019-01-24T07:50:37.766Z,25.03
2019-01-24T07:53:07.653Z,23.13
2019-01-24T07:55:38.722Z,23.87
2019-01-24T07:58:08.698Z,23.13
2019-01-24T08:00:38.645Z,22.60
2019-01-24T08:03:08.725Z,24.03
2019-01-24T08:05:38.673Z,23.30
2019-01-24T08:08:08.585Z,23.60
2019-01-24T08:10:38.255Z,24.07
2019-01-24T08:13:07.975Z,22.70
2019-01-24T08:15:37.826Z,22.83
2019-01-24T08:18:07.711Z,22.53
2019-01-24T08:20:37.746Z,23.65
2019-01-24T08:23:07.756Z,23.53
2019-01-24T08:25:37.714Z,22.73
2019-01-24T08:28:07.421Z,23.10
2019-01-24T08:30:37.155Z,23.20
2019-01-24T08:33:06.853Z,23.63
2019-01-24T08:35:36.804Z,24.13
2019-01-24T08:38:06.733Z,24.47
2019-01-24T08:40:36.694Z,24.65
2019-01-24T08:43:06.403Z,23.37
2019-01-24T08:45:36.068Z,23.13
2019-01-24T08:48:05.790Z,26.33
2019-01-24T08:50:35.795Z,24.13
2019-01-24T08:53:05.714Z,24.10
2019-01-24T08:55:37.986Z,21.60
2019-01-24T08:58:07.748Z,22.57
2019-01-24T09:00:37.709Z,22.33
2019-01-24T09:03:07.734Z,21.80
2019-01-24T09:05:37.784Z,25.00
2019-01-24T09:08:07.754Z,22.33
2019-01-24T09:10:38.305Z,22.55
2019-01-24T09:13:08.144Z,22.57
2019-01-24T09:15:37.952Z,22.13
2019-01-24T09:18:07.771Z,22.63
2019-01-24T09:20:38.085Z,24.55
2019-01-24T09:23:07.807Z,23.07
2019-01-24T09:25:38.014Z,22.98
2019-01-24T09:28:14.587Z,24.60
2019-01-24T09:30:39.298Z,22.17
2019-01-24T09:33:09.005Z,23.37
2019-01-24T09:35:38.880Z,23.17
2019-01-24T09:38:08.809Z,23.90
2019-01-24T09:40:38.757Z,23.93
2019-01-24T09:43:08.825Z,23.30
2019-01-24T09:45:38.569Z,23.27
2019-01-24T09:48:08.329Z,23.00
2019-01-24T09:50:38.102Z,23.47
2019-01-24T09:53:07.897Z,23.53
2019-01-24T09:55:38.104Z,22.62
2019-01-24T09:58:07.832Z,23.07
2019-01-24T10:00:38.056Z,23.70
2019-01-24T10:03:07.869Z,22.27
2019-01-24T10:05:37.842Z,23.47
2019-01-24T10:08:07.838Z,25.23
2019-01-24T10:10:38.036Z,23.30
2019-01-24T10:13:07.935Z,23.30
2019-01-24T10:15:37.902Z,23.40
2019-01-24T10:18:07.928Z,22.70
2019-01-24T10:20:37.882Z,22.82
2019-01-24T10:23:07.870Z,22.60
2019-01-24T10:25:38.076Z,22.32
2019-01-24T10:28:07.904Z,21.67
2019-01-24T10:30:42.594Z,22.40
2019-01-24T10:33:09.895Z,19.93
2019-01-24T10:35:39.662Z,21.60
2019-01-24T10:38:09.361Z,20.50
2019-01-24T10:40:39.021Z,22.80
2019-01-24T10:43:08.903Z,22.97
2019-01-24T10:45:38.856Z,21.87
2019-01-24T10:48:08.536Z,22.70
2019-01-24T10:50:38.297Z,21.40
2019-01-24T10:53:08.092Z,20.33
2019-01-24T10:55:38.047Z,20.00
2019-01-24T10:58:07.995Z,20.73
2019-01-24T11:00:39.099Z,21.70
2019-01-24T11:03:10.822Z,20.70
2019-01-24T11:05:40.842Z,22.17
2019-01-24T11:08:10.604Z,21.10
2019-01-24T11:10:40.370Z,21.53
2019-01-24T11:13:10.141Z,19.03
2019-01-24T11:15:40.042Z,19.73
2019-01-24T11:18:09.945Z,20.87
2019-01-24T11:20:39.913Z,18.23
2019-01-24T11:23:09.901Z,18.63
2019-01-24T11:25:39.635Z,19.47
2019-01-24T11:28:09.313Z,19.80
2019-01-24T11:30:39.014Z,21.77
2019-01-24T11:33:08.600Z,20.23
2019-01-24T11:35:38.294Z,20.60
2019-01-24T11:38:08.066Z,20.67
2019-01-24T11:40:38.148Z,20.12
2019-01-24T11:43:07.946Z,22.07
2019-01-24T11:45:39.898Z,19.98
2019-01-24T11:48:09.684Z,20.87
2019-01-24T11:50:39.480Z,18.13
2019-01-24T11:53:09.144Z,18.97
2019-01-24T11:55:39.084Z,19.00
2019-01-24T11:58:09.012Z,17.87
2019-01-24T12:00:40.961Z,18.80
2019-01-24T12:03:10.630Z,18.20
2019-01-24T12:05:40.328Z,17.67
2019-01-24T12:08:10.081Z,19.43
2019-01-24T12:10:40.049Z,18.13
2019-01-24T12:13:10.044Z,18.30
2019-01-24T12:15:40.090Z,17.63
2019-01-24T12:18:10.086Z,18.37
2019-01-24T12:20:40.163Z,17.13
2019-01-24T12:23:10.095Z,17.00
2019-01-24T12:25:41.686Z,15.80
2019-01-24T12:28:11.449Z,17.70
2019-01-24T12:30:41.142Z,16.97
2019-01-24T12:33:11.057Z,17.67
2019-01-24T12:35:41.027Z,17.27
2019-01-24T12:38:10.686Z,18.00
2019-01-24T12:40:40.405Z,17.57
2019-01-24T12:43:10.128Z,18.80
2019-01-24T12:45:40.114Z,18.03
2019-01-24T12:48:09.777Z,17.80
2019-01-24T12:50:39.694Z,16.90
2019-01-24T12:53:09.449Z,17.57
2019-01-24T12:55:39.237Z,17.90
2019-01-24T12:58:09.254Z,17.50
2019-01-24T13:00:39.187Z,17.60
2019-01-24T13:03:09.093Z,18.00
2019-01-24T13:05:38.785Z,17.93
2019-01-24T13:08:08.456Z,17.57
2019-01-24T13:10:38.430Z,18.17
2019-01-24T13:13:08.225Z,19.20
2019-01-24T13:15:38.071Z,18.03
2019-01-24T13:18:07.740Z,18.77
2019-01-24T13:20:37.441Z,18.00
2019-01-24T13:23:07.168Z,18.67
2019-01-24T13:25:37.254Z,18.17
2019-01-24T13:28:07.200Z,18.07
2019-01-24T13:30:37.479Z,18.37
2019-01-24T13:33:07.330Z,18.10
2019-01-24T13:35:37.385Z,17.90
2019-01-24T13:38:07.169Z,18.07
2019-01-24T13:40:37.446Z,18.65
2019-01-24T13:43:07.194Z,19.40
2019-01-24T13:45:37.437Z,17.23
2019-01-24T13:48:07.238Z,19.10
2019-01-24T13:50:37.481Z,21.45
2019-01-24T13:53:07.258Z,17.77
2019-01-24T13:55:37.291Z,18.53
2019-01-24T13:58:07.185Z,18.03
2019-01-24T14:00:37.457Z,18.12
2019-01-24T14:03:13.414Z,16.93
2019-01-24T14:05:43.263Z,15.90
2019-01-24T14:08:13.262Z,17.23
2019-01-24T14:10:43.291Z,16.77
2019-01-24T14:13:13.267Z,30.07
2019-01-24T14:15:43.291Z,17.30
2019-01-24T14:18:13.254Z,17.40
2019-01-24T14:20:43.260Z,17.10
2019-01-24T14:23:13.233Z,15.63
2019-01-24T14:25:43.258Z,16.93
2019-01-24T14:28:13.311Z,15.40
2019-01-24T14:30:42.908Z,14.23
2019-01-24T14:33:12.588Z,14.60
2019-01-24T14:35:42.454Z,15.20
2019-01-24T14:38:12.456Z,15.50
2019-01-24T14:40:42.265Z,15.33
2019-01-24T14:43:11.965Z,13.83
2019-01-24T14:45:41.666Z,14.17
2019-01-24T14:48:11.350Z,14.40
2019-01-24T14:50:41.345Z,14.87
2019-01-24T14:53:11.362Z,16.23
2019-01-24T14:55:41.261Z,15.00
2019-01-24T14:58:10.953Z,16.97
2019-01-24T15:00:44.135Z,18.03
2019-01-24T15:03:13.825Z,16.50
2019-01-24T15:05:43.569Z,15.87
2019-01-24T15:08:14.818Z,15.50
2019-01-24T15:10:44.707Z,15.53
2019-01-24T15:13:14.434Z,15.07
2019-01-24T15:15:44.381Z,17.00
2019-01-24T15:18:14.433Z,17.13
2019-01-24T15:20:44.554Z,19.60
2019-01-24T15:23:14.492Z,19.30
2019-01-24T15:25:44.415Z,18.40
2019-01-24T15:28:14.386Z,15.77
2019-01-24T15:30:44.287Z,15.50
2019-01-24T15:33:14.469Z,16.27
2019-01-24T15:35:44.410Z,16.30
2019-01-24T15:38:14.414Z,17.80
2019-01-24T15:40:44.408Z,21.40
2019-01-24T15:43:14.104Z,16.57
2019-01-24T15:45:43.872Z,16.53
2019-01-24T15:48:13.680Z,17.67
2019-01-24T15:50:43.444Z,18.70
2019-01-24T15:53:13.393Z,18.20
2019-01-24T15:55:43.412Z,19.10
2019-01-24T15:58:13.502Z,18.07
2019-01-24T16:00:43.487Z,19.03
2019-01-24T16:03:13.454Z,18.83
2019-01-24T16:05:43.372Z,19.23
2019-01-24T16:08:13.098Z,17.87
2019-01-24T16:10:42.780Z,20.80
2019-01-24T16:13:12.472Z,19.17
2019-01-24T16:15:42.370Z,21.27
2019-01-24T16:18:13.619Z,17.93
2019-01-24T16:20:43.465Z,18.50
2019-01-24T16:23:13.092Z,19.33
2019-01-24T16:25:42.761Z,19.60
2019-01-24T16:28:12.517Z,20.90
2019-01-24T16:30:42.386Z,19.80
2019-01-24T16:33:12.143Z,20.73
2019-01-24T16:35:41.875Z,20.33
2019-01-24T16:38:11.632Z,21.40
2019-01-24T16:40:41.450Z,20.17
2019-01-24T16:43:11.407Z,21.53
2019-01-24T16:45:41.406Z,22.17
2019-01-24T16:48:11.031Z,22.13
2019-01-24T16:50:40.694Z,24.97
2019-01-24T16:53:10.460Z,24.30
2019-01-24T16:55:40.347Z,25.23
2019-01-24T16:58:10.045Z,25.27
2019-01-24T17:00:45.022Z,26.13
2019-01-24T17:03:14.646Z,25.50
2019-01-24T17:05:44.479Z,27.57
2019-01-24T17:08:16.600Z,30.10
2019-01-24T17:10:45.764Z,28.30
2019-01-24T17:13:15.536Z,28.83
2019-01-24T17:15:45.144Z,30.77
2019-01-24T17:18:14.923Z,29.13
2019-01-24T17:20:44.612Z,30.73
2019-01-24T17:23:14.520Z,30.83
2019-01-24T17:25:44.210Z,30.97
2019-01-24T17:28:13.900Z,31.83
2019-01-24T17:30:43.797Z,31.87
2019-01-24T17:33:13.757Z,32.73
2019-01-24T17:35:43.710Z,32.90
2019-01-24T17:38:13.538Z,32.53
2019-01-24T17:40:43.677Z,30.63
2019-01-24T17:43:13.558Z,30.27
2019-01-24T17:45:43.200Z,30.23
2019-01-24T17:48:12.809Z,30.77
2019-01-24T17:50:42.637Z,30.77
2019-01-24T17:53:12.577Z,31.10
2019-01-24T17:55:45.422Z,28.53
2019-01-24T17:58:15.095Z,30.50
2019-01-24T18:00:46.366Z,30.67
2019-01-24T18:03:16.142Z,30.20
2019-01-24T18:05:45.774Z,30.70
2019-01-24T18:08:15.662Z,31.13
2019-01-24T18:10:45.554Z,29.90
2019-01-24T18:13:15.230Z,30.33
2019-01-24T18:15:44.930Z,29.90
2019-01-24T18:18:14.713Z,28.90
2019-01-24T18:20:44.670Z,30.77
2019-01-24T18:23:14.596Z,30.33
2019-01-24T18:25:44.295Z,31.07
2019-01-24T18:28:14.058Z,32.10
2019-01-24T18:30:43.959Z,24.93
2019-01-24T18:33:13.716Z,25.47
2019-01-24T18:35:43.678Z,24.67
2019-01-24T18:38:13.678Z,25.57
2019-01-24T18:40:43.383Z,24.90
2019-01-24T18:43:15.964Z,24.37
2019-01-24T18:45:48.129Z,25.63
2019-01-24T18:48:17.867Z,25.57
2019-01-24T18:50:47.717Z,23.60
2019-01-24T18:53:17.388Z,25.27
2019-01-24T18:55:47.021Z,23.70
2019-01-24T18:58:16.861Z,26.13
2019-01-24T19:00:46.782Z,26.60
2019-01-24T19:03:16.710Z,25.57
2019-01-24T19:05:46.716Z,26.43
2019-01-24T19:08:16.742Z,24.80
2019-01-24T19:10:46.741Z,25.20
2019-01-24T19:13:16.414Z,25.83
2019-01-24T19:15:46.127Z,25.70
2019-01-24T19:18:15.805Z,27.50
2019-01-24T19:20:45.706Z,25.83
2019-01-24T19:23:15.725Z,26.47
2019-01-24T19:25:45.668Z,26.00
2019-01-24T19:28:15.694Z,27.00
2019-01-24T19:30:46.645Z,25.03
2019-01-24T19:33:16.737Z,25.90
2019-01-24T19:35:46.454Z,27.13
2019-01-24T19:38:16.103Z,26.43
2019-01-24T19:40:45.827Z,25.03
2019-01-24T19:43:15.512Z,26.67
2019-01-24T19:45:45.281Z,27.43
2019-01-24T19:48:15.054Z,27.77
2019-01-24T19:50:44.796Z,26.97
2019-01-24T19:53:14.822Z,29.27
2019-01-24T19:55:44.786Z,29.07
2019-01-24T19:58:14.539Z,27.57
2019-01-24T20:00:44.320Z,28.43
2019-01-24T20:03:14.155Z,28.43
2019-01-24T20:05:43.911Z,29.83
2019-01-24T20:08:13.926Z,27.27
2019-01-24T20:10:43.791Z,28.50
2019-01-24T20:13:13.431Z,27.87
2019-01-24T20:15:43.278Z,26.50
2019-01-24T20:18:12.974Z,27.57
2019-01-24T20:20:42.825Z,28.33
2019-01-24T20:23:12.917Z,28.03
2019-01-24T20:25:42.786Z,28.90
2019-01-24T20:28:12.424Z,28.93
2019-01-24T20:30:42.107Z,27.90
2019-01-24T20:33:11.878Z,26.77
2019-01-24T20:35:50.559Z,28.43
2019-01-24T20:38:21.139Z,29.52
2019-01-24T20:40:51.018Z,28.70
2019-01-24T20:43:21.246Z,29.33
2019-01-24T20:45:51.014Z,30.20
2019-01-24T20:48:21.216Z,27.83
2019-01-24T20:50:50.935Z,28.73
2019-01-24T20:53:21.329Z,30.32
2019-01-24T20:55:51.110Z,30.83
2019-01-24T20:58:21.209Z,27.33
2019-01-24T21:00:50.952Z,28.33
2019-01-24T21:03:21.192Z,27.33
2019-01-24T21:05:50.918Z,28.17
2019-01-24T21:08:21.321Z,23.10
2019-01-24T21:10:50.971Z,23.97
2019-01-24T21:13:21.353Z,23.60
2019-01-24T21:15:51.126Z,23.60
2019-01-24T21:18:21.279Z,23.60
2019-01-24T21:20:51.055Z,23.40
2019-01-24T21:23:21.224Z,23.27
2019-01-24T21:25:50.973Z,24.13
2019-01-24T21:28:21.345Z,23.70
2019-01-24T21:30:51.122Z,22.23
2019-01-24T21:33:21.242Z,24.40
2019-01-24T21:35:51.019Z,22.70
2019-01-24T21:38:21.226Z,23.07
2019-01-24T21:40:50.950Z,22.97
2019-01-24T21:43:21.250Z,25.60
2019-01-24T21:45:50.986Z,24.87
2019-01-24T21:48:21.382Z,24.92
2019-01-24T21:50:51.057Z,24.63
2019-01-24T21:53:21.229Z,25.67
2019-01-24T21:55:50.959Z,26.83
2019-01-24T21:58:21.427Z,25.27
2019-01-24T22:00:51.193Z,25.83
2019-01-24T22:03:21.316Z,24.20
2019-01-24T22:05:50.997Z,26.17
2019-01-24T22:08:21.394Z,23.73
2019-01-24T22:10:51.158Z,26.40
2019-01-24T22:13:21.390Z,24.83
2019-01-24T22:15:51.064Z,26.10
2019-01-24T22:18:21.220Z,26.20
2019-01-24T22:20:55.613Z,26.37
2019-01-24T22:23:22.390Z,25.20
2019-01-24T22:25:52.084Z,26.13
2019-01-24T22:28:22.118Z,27.23
2019-01-24T22:30:52.946Z,28.23
2019-01-24T22:33:23.323Z,26.93
2019-01-24T22:35:53.089Z,27.70
2019-01-24T22:38:23.092Z,27.23
2019-01-24T22:40:53.116Z,26.80
2019-01-24T22:43:23.250Z,26.27
2019-01-24T22:45:53.041Z,26.83
2019-01-24T22:48:23.135Z,27.03
2019-01-24T22:50:53.079Z,26.33
2019-01-24T22:53:23.175Z,25.73
2019-01-24T22:55:53.112Z,25.10
2019-01-24T22:58:23.191Z,24.40
2019-01-24T23:00:59.118Z,24.63
2019-01-24T23:03:35.374Z,25.08
2019-01-24T23:06:05.278Z,27.70
2019-01-24T23:08:35.415Z,26.25
2019-01-24T23:11:05.739Z,26.57
2019-01-24T23:13:35.405Z,23.57
2019-01-24T23:16:05.413Z,25.27
2019-01-24T23:18:35.302Z,26.47
2019-01-24T23:21:05.190Z,25.77
2019-01-24T23:23:35.145Z,23.02
2019-01-24T23:26:05.221Z,26.00
2019-01-24T23:28:35.421Z,24.75
2019-01-24T23:31:05.477Z,25.77
2019-01-24T23:33:35.514Z,25.53
2019-01-24T23:36:05.316Z,25.90
2019-01-24T23:38:35.332Z,25.20
2019-01-24T23:41:05.228Z,24.43
2019-01-24T23:43:35.369Z,24.02
2019-01-24T23:46:05.250Z,25.33
2019-01-24T23:48:35.464Z,24.43
2019-01-24T23:51:05.295Z,22.23
2019-01-24T23:53:35.398Z,20.92
2019-01-24T23:56:05.376Z,22.77
2019-01-24T23:58:35.336Z,22.20
